createdAt,value
2023-03-06T00:02:01.686Z,84.65
2023-03-06T00:04:13.272Z,85.10
2023-03-06T00:06:17.991Z,84.74
2023-03-06T00:08:20.034Z,85.23
2023-03-06T00:10:25.915Z,85.28
2023-03-06T00:12:27.846Z,85.06
2023-03-06T00:14:36.892Z,85.33
2023-03-06T00:16:39.059Z,85.36
2023-03-06T00:18:44.238Z,84.88
2023-03-06T00:20:48.228Z,83.83
2023-03-06T00:22:51.646Z,85.22
2023-03-06T00:24:54.255Z,84.02
2023-03-06T00:26:56.163Z,84.00
2023-03-06T00:28:58.144Z,82.90
2023-03-06T00:31:00.148Z,85.09
2023-03-06T00:33:02.177Z,84.41
2023-03-06T00:35:04.507Z,84.36
2023-03-06T00:37:08.421Z,84.00
2023-03-06T00:39:11.439Z,84.79
2023-03-06T00:41:13.956Z,83.55
2023-03-06T00:43:19.014Z,84.26
2023-03-06T00:45:20.964Z,84.74
2023-03-06T00:47:22.988Z,84.58
2023-03-06T00:49:27.042Z,85.31
2023-03-06T00:51:31.204Z,84.75
2023-03-06T00:53:35.116Z,84.86
2023-03-06T00:55:37.987Z,84.82
2023-03-06T00:57:41.158Z,85.13
2023-03-06T00:59:43.329Z,85.48
2023-03-06T01:01:46.496Z,85.38
2023-03-06T01:03:48.392Z,85.06
2023-03-06T01:05:50.334Z,84.91
2023-03-06T01:07:56.209Z,85.09
2023-03-06T01:09:58.097Z,84.44
2023-03-06T01:11:59.982Z,83.66
2023-03-06T01:14:02.060Z,84.21
2023-03-06T01:16:12.648Z,84.41
2023-03-06T01:18:17.754Z,83.29
2023-03-06T01:20:19.777Z,83.72
2023-03-06T01:22:21.720Z,83.79
2023-03-06T01:24:26.850Z,84.15
2023-03-06T01:26:31.889Z,83.51
2023-03-06T01:28:37.600Z,83.47
2023-03-06T01:30:40.516Z,84.29
2023-03-06T01:32:42.404Z,84.38
2023-03-06T01:34:44.326Z,84.40
2023-03-06T01:36:47.956Z,84.34
2023-03-06T01:38:50.939Z,84.91
2023-03-06T01:40:52.863Z,85.58
2023-03-06T01:42:54.725Z,85.48
2023-03-06T01:45:28.794Z,84.37
2023-03-06T01:47:31.015Z,84.47
2023-03-06T01:49:39.520Z,83.99
2023-03-06T01:51:50.088Z,84.79
2023-03-06T01:53:54.325Z,84.20
2023-03-06T01:55:56.235Z,83.94
2023-03-06T01:58:05.426Z,84.79
2023-03-06T02:00:13.462Z,85.41
2023-03-06T02:02:15.872Z,85.79
2023-03-06T02:04:18.482Z,85.03
2023-03-06T02:06:22.057Z,85.63
2023-03-06T02:08:24.845Z,85.32
2023-03-06T02:10:27.167Z,85.19
2023-03-06T02:12:29.162Z,85.35
2023-03-06T02:14:34.033Z,85.16
2023-03-06T02:16:36.071Z,85.17
2023-03-06T02:18:42.714Z,84.68
2023-03-06T02:20:50.481Z,86.05
2023-03-06T02:23:10.577Z,84.78
2023-03-06T02:25:51.121Z,85.86
2023-03-06T02:27:53.253Z,85.57
2023-03-06T02:29:56.254Z,85.47
2023-03-06T02:31:59.426Z,86.50
2023-03-06T02:34:14.473Z,86.12
2023-03-06T02:36:22.464Z,86.42
2023-03-06T02:38:48.073Z,85.65
2023-03-06T02:40:52.616Z,86.31
2023-03-06T02:43:00.545Z,86.40
2023-03-06T02:45:08.046Z,85.92
2023-03-06T02:47:10.213Z,86.99
2023-03-06T02:49:13.137Z,86.10
2023-03-06T02:51:15.076Z,86.38
2023-03-06T02:53:19.373Z,85.78
2023-03-06T02:55:24.694Z,86.33
2023-03-06T02:57:27.672Z,86.53
2023-03-06T02:59:32.565Z,86.52
2023-03-06T03:01:34.491Z,86.60
2023-03-06T03:03:37.569Z,86.24
2023-03-06T03:05:40.482Z,85.82
2023-03-06T03:07:43.473Z,85.53
2023-03-06T03:09:51.335Z,85.85
2023-03-06T03:12:01.166Z,85.94
2023-03-06T03:14:03.094Z,85.55
2023-03-06T03:16:09.961Z,85.66
2023-03-06T03:18:12.425Z,86.29
2023-03-06T03:20:19.274Z,85.60
2023-03-06T03:22:21.185Z,86.13
2023-03-06T03:24:24.764Z,85.52
2023-03-06T03:26:26.685Z,84.71
2023-03-06T03:28:30.647Z,85.74
2023-03-06T03:30:33.696Z,86.36
2023-03-06T03:32:35.778Z,85.38
2023-03-06T03:34:38.746Z,85.41
2023-03-06T03:36:40.761Z,85.80
2023-03-06T03:38:46.639Z,85.63
2023-03-06T03:40:50.558Z,85.31
2023-03-06T03:42:54.454Z,86.15
2023-03-06T03:44:57.302Z,85.65
2023-03-06T03:46:59.193Z,85.96
2023-03-06T03:49:02.185Z,85.36
2023-03-06T03:51:13.398Z,85.39
2023-03-06T03:53:17.347Z,84.99
2023-03-06T03:55:21.316Z,85.15
2023-03-06T03:57:24.292Z,84.68
2023-03-06T03:59:29.379Z,84.41
2023-03-06T04:01:39.539Z,85.15
2023-03-06T04:03:42.823Z,85.76
2023-03-06T04:05:45.730Z,85.34
2023-03-06T04:07:47.772Z,85.84
2023-03-06T04:09:49.666Z,85.29
2023-03-06T04:11:51.645Z,85.42
2023-03-06T04:13:55.523Z,85.61
2023-03-06T04:15:57.586Z,85.77
2023-03-06T04:18:01.612Z,85.79
2023-03-06T04:20:05.257Z,86.47
2023-03-06T04:22:07.195Z,86.21
2023-03-06T04:24:11.239Z,86.90
2023-03-06T04:26:13.213Z,86.71
2023-03-06T04:28:15.596Z,87.17
2023-03-06T04:30:17.553Z,87.69
2023-03-06T04:32:21.392Z,88.26
2023-03-06T04:34:23.674Z,88.30
2023-03-06T04:36:29.717Z,88.59
2023-03-06T04:38:31.744Z,88.04
2023-03-06T04:40:36.198Z,88.17
2023-03-06T04:42:38.406Z,88.36
2023-03-06T04:44:41.409Z,88.28
2023-03-06T04:46:43.363Z,87.81
2023-03-06T04:48:45.497Z,88.18
2023-03-06T04:50:47.564Z,88.87
2023-03-06T04:52:49.651Z,89.41
2023-03-06T04:54:51.674Z,88.68
2023-03-06T04:56:57.732Z,89.44
2023-03-06T04:58:59.699Z,90.48
2023-03-06T05:01:16.565Z,90.79
2023-03-06T05:03:18.479Z,89.20
2023-03-06T05:05:20.425Z,90.26
2023-03-06T05:07:22.465Z,89.65
2023-03-06T05:09:31.084Z,90.27
2023-03-06T05:11:33.050Z,89.25
2023-03-06T05:13:34.976Z,89.96
2023-03-06T05:15:42.293Z,89.61
2023-03-06T05:17:44.549Z,90.18
2023-03-06T05:19:46.446Z,90.04
2023-03-06T05:21:48.665Z,89.20
2023-03-06T05:23:50.704Z,89.89
2023-03-06T05:25:53.723Z,90.45
2023-03-06T05:27:55.730Z,90.11
2023-03-06T05:29:58.751Z,89.41
2023-03-06T05:32:05.199Z,88.76
2023-03-06T05:34:08.206Z,88.68
2023-03-06T05:36:10.563Z,88.87
2023-03-06T05:38:12.561Z,86.96
2023-03-06T05:40:17.443Z,88.38
2023-03-06T05:42:20.778Z,89.34
2023-03-06T05:44:24.173Z,89.33
2023-03-06T05:46:26.347Z,89.22
2023-03-06T05:48:35.381Z,89.32
2023-03-06T05:50:45.214Z,89.54
2023-03-06T05:52:47.123Z,89.35
2023-03-06T05:54:57.173Z,87.88
2023-03-06T05:57:05.912Z,87.43
2023-03-06T05:59:07.882Z,87.19
2023-03-06T06:01:18.525Z,85.92
2023-03-06T06:03:22.745Z,86.70
2023-03-06T06:05:48.198Z,86.66
2023-03-06T06:07:56.073Z,86.33
2023-03-06T06:09:58.097Z,87.50
2023-03-06T06:12:03.958Z,87.22
2023-03-06T06:14:07.016Z,86.34
2023-03-06T06:16:19.657Z,88.33
2023-03-06T06:18:22.716Z,87.37
2023-03-06T06:20:25.783Z,87.66
2023-03-06T06:22:27.766Z,85.82
2023-03-06T06:24:33.691Z,85.51
2023-03-06T06:26:37.679Z,86.64
2023-03-06T06:28:39.805Z,84.86
2023-03-06T06:30:47.516Z,85.00
2023-03-06T06:32:49.537Z,83.46
2023-03-06T06:34:52.542Z,83.81
2023-03-06T06:36:55.757Z,83.07
2023-03-06T06:39:00.662Z,83.15
2023-03-06T06:41:33.481Z,81.05
2023-03-06T06:43:26.444Z,79.92
2023-03-06T06:45:28.684Z,77.02
2023-03-06T06:47:30.687Z,77.69
2023-03-06T06:49:33.179Z,74.71
2023-03-06T06:51:39.796Z,72.79
2023-03-06T06:53:42.857Z,74.47
2023-03-06T06:55:44.853Z,71.36
2023-03-06T06:57:46.998Z,70.02
2023-03-06T06:59:50.650Z,70.79
2023-03-06T07:01:54.720Z,71.52
2023-03-06T07:03:56.991Z,73.23
2023-03-06T07:05:58.974Z,72.84
2023-03-06T07:08:01.080Z,73.33
2023-03-06T07:10:11.027Z,73.04
2023-03-06T07:12:18.903Z,73.37
2023-03-06T07:13:24.373Z,73.08
2023-03-06T07:13:38.678Z,72.61
2023-03-06T07:13:52.714Z,72.55
2023-03-06T07:14:06.690Z,73.09
2023-03-06T07:14:20.588Z,72.87
2023-03-06T07:14:34.675Z,73.11
2023-03-06T07:14:48.713Z,73.40
2023-03-06T07:15:03.173Z,74.22
2023-03-06T07:17:40.625Z,74.32
2023-03-06T07:19:42.813Z,74.32
2023-03-06T07:21:45.810Z,75.14
2023-03-06T07:23:47.945Z,75.54
2023-03-06T07:25:50.289Z,74.46
2023-03-06T07:27:55.863Z,74.59
2023-03-06T07:29:57.993Z,75.71
2023-03-06T07:32:00.237Z,74.86
2023-03-06T07:34:04.808Z,75.06
2023-03-06T07:36:12.726Z,71.67
2023-03-06T07:38:14.903Z,68.81
2023-03-06T07:40:17.476Z,67.31
2023-03-06T07:42:19.572Z,68.05
2023-03-06T07:44:21.689Z,67.51
2023-03-06T07:46:25.788Z,66.60
2023-03-06T07:48:31.806Z,67.49
2023-03-06T07:50:35.280Z,67.14
2023-03-06T07:52:37.239Z,66.66
2023-03-06T07:54:39.179Z,67.30
2023-03-06T07:55:12.670Z,67.01
2023-03-06T07:55:24.616Z,67.10
2023-03-06T07:55:39.526Z,66.90
2023-03-06T07:55:51.384Z,67.24
2023-03-06T07:56:09.403Z,67.63
2023-03-06T07:56:21.379Z,67.50
2023-03-06T07:56:35.234Z,67.72
2023-03-06T07:56:50.952Z,66.90
2023-03-06T07:57:02.810Z,66.41
2023-03-06T07:57:15.153Z,65.77
2023-03-06T07:57:27.345Z,65.79
2023-03-06T07:57:39.722Z,65.40
2023-03-06T07:57:51.839Z,65.14
2023-03-06T07:58:03.745Z,64.61
2023-03-06T07:58:15.605Z,65.00
2023-03-06T07:58:27.750Z,65.10
2023-03-06T07:58:42.958Z,65.15
2023-03-06T07:58:56.109Z,64.40
2023-03-06T07:59:11.061Z,64.33
2023-03-06T07:59:22.992Z,64.65
2023-03-06T07:59:34.931Z,63.97
2023-03-06T07:59:46.896Z,64.26
2023-03-06T07:59:58.833Z,64.49
2023-03-06T08:00:15.071Z,64.44
2023-03-06T08:00:27.019Z,64.99
2023-03-06T08:00:38.925Z,64.97
2023-03-06T08:00:50.810Z,64.40
2023-03-06T08:01:07.181Z,64.94
2023-03-06T08:01:28.526Z,65.75
2023-03-06T08:01:40.486Z,65.68
2023-03-06T08:01:55.257Z,66.48
2023-03-06T08:02:07.633Z,66.14
2023-03-06T08:02:19.498Z,65.74
2023-03-06T08:02:31.541Z,66.54
2023-03-06T08:02:44.174Z,66.42
2023-03-06T08:02:56.356Z,66.09
2023-03-06T08:03:11.428Z,66.00
2023-03-06T08:03:26.388Z,65.66
2023-03-06T08:03:38.562Z,65.35
2023-03-06T08:03:51.076Z,65.29
2023-03-06T08:04:03.095Z,65.62
2023-03-06T08:04:15.051Z,65.24
2023-03-06T08:04:28.987Z,65.23
2023-03-06T08:04:40.980Z,65.90
2023-03-06T08:04:54.554Z,65.86
2023-03-06T08:05:08.258Z,66.51
2023-03-06T08:05:20.274Z,65.95
2023-03-06T08:05:32.159Z,66.35
2023-03-06T08:05:45.076Z,65.93
2023-03-06T08:06:06.120Z,66.26
2023-03-06T08:06:23.605Z,66.37
2023-03-06T08:06:35.597Z,67.02
2023-03-06T08:06:47.484Z,66.89
2023-03-06T08:07:00.197Z,66.98
2023-03-06T08:07:13.369Z,65.57
2023-03-06T08:07:25.228Z,66.41
2023-03-06T08:07:37.117Z,65.89
2023-03-06T08:07:48.967Z,65.97
2023-03-06T08:08:00.869Z,65.68
2023-03-06T08:08:12.816Z,66.02
2023-03-06T08:08:24.706Z,66.15
2023-03-06T08:08:39.534Z,65.65
2023-03-06T08:08:53.269Z,65.82
2023-03-06T08:09:05.109Z,66.50
2023-03-06T08:09:17.004Z,66.28
2023-03-06T08:09:28.859Z,66.01
2023-03-06T08:09:40.673Z,66.08
2023-03-06T08:09:52.599Z,65.54
2023-03-06T08:10:05.304Z,66.32
2023-03-06T08:10:17.590Z,66.28
2023-03-06T08:12:27.975Z,67.74
2023-03-06T08:14:29.891Z,67.31
2023-03-06T08:16:32.141Z,68.03
2023-03-06T08:18:35.705Z,68.28
2023-03-06T08:20:37.665Z,67.88
2023-03-06T08:22:39.699Z,67.58
2023-03-06T08:24:41.757Z,66.66
2023-03-06T08:26:43.862Z,65.70
2023-03-06T08:28:46.720Z,67.99
2023-03-06T08:30:48.593Z,65.89
2023-03-06T08:32:50.666Z,67.07
2023-03-06T08:33:15.742Z,65.24
2023-03-06T08:33:23.183Z,65.48
2023-03-06T08:33:30.028Z,64.81
2023-03-06T08:33:37.058Z,64.83
2023-03-06T08:33:43.989Z,64.10
2023-03-06T08:33:51.067Z,64.58
2023-03-06T08:34:00.060Z,64.64
2023-03-06T08:34:10.351Z,65.25
2023-03-06T08:34:20.235Z,65.53
2023-03-06T08:34:27.283Z,66.04
2023-03-06T08:34:34.252Z,66.55
2023-03-06T08:34:42.796Z,66.91
2023-03-06T08:34:49.662Z,66.00
2023-03-06T08:34:56.541Z,65.32
2023-03-06T08:35:04.726Z,64.76
2023-03-06T08:35:11.718Z,64.93
2023-03-06T08:35:18.864Z,64.90
2023-03-06T08:37:26.462Z,65.40
2023-03-06T08:39:28.378Z,66.52
2023-03-06T08:41:30.929Z,66.23
2023-03-06T08:43:32.931Z,64.23
2023-03-06T08:45:36.226Z,66.83
2023-03-06T08:47:38.213Z,66.10
2023-03-06T08:49:40.557Z,64.32
2023-03-06T08:51:43.251Z,63.91
2023-03-06T08:53:45.531Z,63.29
2023-03-06T08:57:04.327Z,65.10
2023-03-06T08:59:06.810Z,64.90
2023-03-06T09:01:13.094Z,66.18
2023-03-06T09:03:15.040Z,63.85
2023-03-06T09:05:16.869Z,63.64
2023-03-06T09:07:18.631Z,63.08
2023-03-06T09:09:20.381Z,63.78
2023-03-06T09:11:23.730Z,66.57
2023-03-06T09:13:25.445Z,66.04
2023-03-06T09:15:27.241Z,65.96
2023-03-06T09:17:30.104Z,64.96
2023-03-06T09:19:31.994Z,64.45
2023-03-06T09:21:33.819Z,63.94
2023-03-06T09:23:35.776Z,63.92
2023-03-06T09:25:37.593Z,65.64
2023-03-06T09:27:39.555Z,65.63
2023-03-06T09:29:41.374Z,66.42
2023-03-06T09:31:43.320Z,67.38
2023-03-06T09:33:45.130Z,66.45
2023-03-06T09:35:52.153Z,66.31
2023-03-06T09:37:54.023Z,66.59
2023-03-06T09:39:55.856Z,66.41
2023-03-06T09:41:58.665Z,66.95
2023-03-06T09:44:06.303Z,65.24
2023-03-06T09:46:30.173Z,65.33
2023-03-06T09:48:45.205Z,65.89
2023-03-06T09:50:54.068Z,62.00
2023-03-06T09:53:03.433Z,62.54
2023-03-06T09:55:05.328Z,63.86
2023-03-06T09:57:14.252Z,64.39
2023-03-06T09:59:26.143Z,65.14
2023-03-06T10:01:35.182Z,63.95
2023-03-06T10:03:42.511Z,63.53
2023-03-06T10:06:03.578Z,62.49
2023-03-06T10:08:24.432Z,63.29
2023-03-06T10:10:28.626Z,62.77
2023-03-06T10:12:38.288Z,63.91
2023-03-06T10:15:06.001Z,62.06
2023-03-06T10:17:14.817Z,64.62
2023-03-06T10:19:18.153Z,65.41
2023-03-06T10:21:38.935Z,65.45
2023-03-06T10:23:53.394Z,66.92
2023-03-06T10:25:23.866Z,65.96
2023-03-06T10:25:46.138Z,66.81
2023-03-06T10:26:03.652Z,66.08
2023-03-06T10:26:22.913Z,65.47
2023-03-06T10:26:52.706Z,66.42
2023-03-06T10:27:31.820Z,65.75
2023-03-06T10:27:49.501Z,65.34
2023-03-06T10:28:28.069Z,65.45
2023-03-06T10:28:47.176Z,65.99
2023-03-06T10:29:11.035Z,66.96
2023-03-06T10:30:02.267Z,66.31
2023-03-06T10:30:20.369Z,67.28
2023-03-06T10:30:47.180Z,67.35
2023-03-06T10:31:17.086Z,67.36
2023-03-06T10:31:34.744Z,68.34
2023-03-06T10:31:58.556Z,67.31
2023-03-06T10:32:39.495Z,66.90
2023-03-06T10:33:15.934Z,67.85
2023-03-06T10:34:06.720Z,67.89
2023-03-06T10:34:28.858Z,68.07
2023-03-06T10:34:43.697Z,68.95
2023-03-06T10:35:00.679Z,69.05
2023-03-06T10:35:45.080Z,69.58
2023-03-06T10:35:59.259Z,70.19
2023-03-06T10:36:16.379Z,69.69
2023-03-06T10:36:30.392Z,69.93
2023-03-06T10:36:44.297Z,69.24
2023-03-06T10:37:05.471Z,69.14
2023-03-06T10:37:21.768Z,69.56
2023-03-06T10:37:35.740Z,68.27
2023-03-06T10:37:49.820Z,67.36
2023-03-06T10:38:25.691Z,66.35
2023-03-06T10:38:40.691Z,66.12
2023-03-06T10:38:56.861Z,66.48
2023-03-06T10:39:17.989Z,66.54
2023-03-06T10:39:32.114Z,67.45
2023-03-06T10:39:46.971Z,66.67
2023-03-06T10:40:18.568Z,67.18
2023-03-06T10:40:43.591Z,67.90
2023-03-06T10:41:17.194Z,66.60
2023-03-06T10:41:35.978Z,66.67
2023-03-06T10:41:50.376Z,66.85
2023-03-06T10:42:04.264Z,66.72
2023-03-06T10:42:18.216Z,67.18
2023-03-06T10:42:32.210Z,67.01
2023-03-06T10:42:46.121Z,66.90
2023-03-06T10:43:11.202Z,66.49
2023-03-06T10:43:26.049Z,66.22
2023-03-06T10:43:45.186Z,66.35
2023-03-06T10:44:05.262Z,66.67
2023-03-06T10:44:21.257Z,66.50
2023-03-06T10:44:35.127Z,67.14
2023-03-06T10:44:48.981Z,67.06
2023-03-06T10:45:16.739Z,66.82
2023-03-06T10:45:40.530Z,67.81
2023-03-06T10:46:01.753Z,68.70
2023-03-06T10:46:28.188Z,68.88
2023-03-06T10:46:47.697Z,69.09
2023-03-06T10:47:27.716Z,68.54
2023-03-06T10:47:42.450Z,69.37
2023-03-06T10:48:15.414Z,68.73
2023-03-06T10:48:30.912Z,68.52
2023-03-06T10:48:58.539Z,69.90
2023-03-06T10:49:36.060Z,68.74
2023-03-06T10:50:08.416Z,68.98
2023-03-06T10:50:30.788Z,69.61
2023-03-06T10:50:44.661Z,70.59
2023-03-06T10:51:20.184Z,72.17
2023-03-06T10:51:37.031Z,71.73
2023-03-06T10:52:15.436Z,72.20
2023-03-06T10:52:32.409Z,71.07
2023-03-06T10:53:00.512Z,70.02
2023-03-06T10:53:24.092Z,70.62
2023-03-06T10:53:53.450Z,70.89
2023-03-06T10:54:13.154Z,70.36
2023-03-06T10:54:28.389Z,70.41
2023-03-06T10:54:44.466Z,71.23
2023-03-06T10:55:25.009Z,70.85
2023-03-06T10:55:39.480Z,71.31
2023-03-06T10:57:48.010Z,71.38
2023-03-06T11:00:05.700Z,72.65
2023-03-06T11:02:41.336Z,71.06
2023-03-06T11:04:51.394Z,67.41
2023-03-06T11:07:18.991Z,67.82
2023-03-06T11:09:26.206Z,69.40
2023-03-06T11:11:37.235Z,71.72
2023-03-06T11:13:43.329Z,73.30
2023-03-06T11:16:08.169Z,75.17
2023-03-06T11:18:11.153Z,75.52
2023-03-06T11:20:51.862Z,74.89
2023-03-06T11:23:16.502Z,74.58
2023-03-06T11:25:22.297Z,73.52
2023-03-06T11:27:35.047Z,72.71
2023-03-06T11:29:43.370Z,72.65
2023-03-06T11:32:00.219Z,72.43
2023-03-06T11:34:38.119Z,73.83
2023-03-06T11:37:06.541Z,72.82
2023-03-06T11:39:41.721Z,73.93
2023-03-06T11:42:28.328Z,73.51
2023-03-06T11:44:53.035Z,75.30
2023-03-06T11:47:18.637Z,74.79
2023-03-06T11:49:43.549Z,75.10
2023-03-06T11:51:53.334Z,75.97
2023-03-06T11:54:00.474Z,76.02
2023-03-06T11:56:26.237Z,77.16
2023-03-06T11:58:58.902Z,76.24
2023-03-06T12:01:10.842Z,77.10
2023-03-06T12:03:46.268Z,77.16
2023-03-06T12:06:10.508Z,78.07
2023-03-06T12:08:25.629Z,78.03
2023-03-06T12:10:51.747Z,78.99
2023-03-06T12:13:18.050Z,78.95
2023-03-06T12:15:46.892Z,78.83
2023-03-06T12:18:30.964Z,79.75
2023-03-06T12:21:11.335Z,80.43
2023-03-06T12:23:50.456Z,80.56
2023-03-06T12:26:27.354Z,80.32
2023-03-06T12:28:42.161Z,80.91
2023-03-06T12:31:06.900Z,80.85
2023-03-06T12:33:38.341Z,81.14
2023-03-06T12:36:16.607Z,81.08
2023-03-06T12:38:52.369Z,81.51
2023-03-06T12:41:07.448Z,81.59
2023-03-06T12:43:27.560Z,80.68
2023-03-06T12:45:37.286Z,81.39
2023-03-06T12:47:44.903Z,80.81
2023-03-06T12:49:53.497Z,81.31
2023-03-06T12:51:57.210Z,79.50
2023-03-06T12:54:02.396Z,79.89
2023-03-06T12:56:05.164Z,79.42
2023-03-06T12:58:30.838Z,80.00
2023-03-06T13:01:03.610Z,80.72
2023-03-06T13:03:46.593Z,81.76
2023-03-06T13:06:16.252Z,80.13
2023-03-06T13:08:59.010Z,79.94
2023-03-06T13:11:39.722Z,80.97
2023-03-06T13:13:49.148Z,81.32
2023-03-06T13:16:09.845Z,81.19
2023-03-06T13:18:34.667Z,81.50
2023-03-06T13:20:44.407Z,81.54
2023-03-06T13:22:47.550Z,82.00
2023-03-06T13:25:22.187Z,82.78
2023-03-06T13:27:46.301Z,82.43
2023-03-06T13:30:05.314Z,83.66
2023-03-06T13:32:28.124Z,83.51
2023-03-06T13:34:49.459Z,83.55
2023-03-06T13:36:53.669Z,84.25
2023-03-06T13:38:57.880Z,84.79
2023-03-06T13:41:25.907Z,86.01
2023-03-06T13:43:40.663Z,84.68
2023-03-06T13:46:35.172Z,85.33
2023-03-06T13:48:45.163Z,86.69
2023-03-06T13:50:57.903Z,86.10
2023-03-06T13:53:27.418Z,85.59
2023-03-06T13:55:48.675Z,85.92
2023-03-06T13:58:22.765Z,85.99
2023-03-06T14:01:04.436Z,85.73
2023-03-06T14:03:43.373Z,86.49
2023-03-06T14:05:52.297Z,86.66
2023-03-06T14:08:20.008Z,86.27
2023-03-06T14:10:26.966Z,87.06
2023-03-06T14:12:42.616Z,86.97
2023-03-06T14:15:06.028Z,87.29
2023-03-06T14:17:18.989Z,86.06
2023-03-06T14:19:21.231Z,87.57
2023-03-06T14:21:56.058Z,88.04
2023-03-06T14:24:06.067Z,87.84
2023-03-06T14:26:27.065Z,87.73
2023-03-06T14:29:04.564Z,86.92
2023-03-06T14:31:07.505Z,88.04
2023-03-06T14:33:11.697Z,88.89
2023-03-06T14:35:32.411Z,89.14
2023-03-06T14:37:37.727Z,90.08
2023-03-06T14:39:46.941Z,89.99
2023-03-06T14:41:49.488Z,90.48
2023-03-06T14:43:52.844Z,91.34
2023-03-06T14:46:03.397Z,91.64
2023-03-06T14:48:15.668Z,91.38
2023-03-06T14:50:34.406Z,91.96
2023-03-06T14:52:43.574Z,92.23
2023-03-06T14:54:59.019Z,91.25
2023-03-06T14:57:06.363Z,92.08
2023-03-06T14:59:16.822Z,92.37
2023-03-06T15:01:40.771Z,91.30
2023-03-06T15:03:55.178Z,90.99
2023-03-06T15:06:01.423Z,90.98
2023-03-06T15:08:17.957Z,92.06
2023-03-06T15:10:26.273Z,92.06
2023-03-06T15:12:38.918Z,91.26
2023-03-06T15:14:48.082Z,91.60
2023-03-06T15:16:50.125Z,91.74
2023-03-06T15:19:04.548Z,91.45
2023-03-06T15:21:20.856Z,92.90
2023-03-06T15:23:45.779Z,92.54
2023-03-06T15:26:03.952Z,92.18
2023-03-06T15:28:30.890Z,92.25
2023-03-06T15:30:42.248Z,91.95
2023-03-06T15:32:52.225Z,91.00
2023-03-06T15:35:30.187Z,90.80
2023-03-06T15:37:34.665Z,91.13
2023-03-06T15:39:46.910Z,91.86
2023-03-06T15:42:18.313Z,91.84
2023-03-06T15:44:27.072Z,91.43
2023-03-06T15:46:41.854Z,92.39
2023-03-06T15:49:03.246Z,91.43
2023-03-06T15:51:07.057Z,91.57
2023-03-06T15:53:09.243Z,92.40
2023-03-06T15:55:24.241Z,91.71
2023-03-06T15:57:53.247Z,92.37
2023-03-06T16:00:00.391Z,90.12
2023-03-06T16:02:15.764Z,91.63
2023-03-06T16:04:20.184Z,91.83
2023-03-06T16:06:32.092Z,90.76
2023-03-06T16:08:34.360Z,91.08
2023-03-06T16:10:40.901Z,91.25
2023-03-06T16:12:51.900Z,91.77
2023-03-06T16:14:57.377Z,92.16
2023-03-06T16:17:04.687Z,91.75
2023-03-06T16:19:25.244Z,91.25
2023-03-06T16:21:29.183Z,91.46
2023-03-06T16:23:39.662Z,91.18
2023-03-06T16:25:49.371Z,91.33
2023-03-06T16:28:16.152Z,90.56
2023-03-06T16:30:20.183Z,91.18
2023-03-06T16:32:28.796Z,91.31
2023-03-06T16:34:34.667Z,91.28
2023-03-06T16:36:41.685Z,91.05
2023-03-06T16:38:45.037Z,90.57
2023-03-06T16:40:50.116Z,91.54
2023-03-06T16:42:57.894Z,88.82
2023-03-06T16:45:03.530Z,88.67
2023-03-06T16:47:07.113Z,89.72
2023-03-06T16:49:21.081Z,89.15
2023-03-06T16:51:24.149Z,88.72
2023-03-06T16:53:26.402Z,89.05
2023-03-06T16:55:29.492Z,89.46
2023-03-06T16:57:35.967Z,88.58
2023-03-06T16:59:39.522Z,88.30
2023-03-06T17:01:51.798Z,88.25
2023-03-06T17:03:57.401Z,88.83
2023-03-06T17:05:59.806Z,89.83
2023-03-06T17:08:05.087Z,88.76
2023-03-06T17:10:10.900Z,88.02
2023-03-06T17:12:13.074Z,88.46
2023-03-06T17:14:33.730Z,88.35
2023-03-06T17:16:40.549Z,88.13
2023-03-06T17:18:45.459Z,87.56
2023-03-06T17:20:52.595Z,87.55
2023-03-06T17:22:55.946Z,88.16
2023-03-06T17:24:58.282Z,88.32
2023-03-06T17:27:01.629Z,86.62
2023-03-06T17:29:07.024Z,86.56
2023-03-06T17:31:18.007Z,85.72
2023-03-06T17:33:20.743Z,86.23
2023-03-06T17:35:27.346Z,86.16
2023-03-06T17:37:33.185Z,86.84
2023-03-06T17:39:39.231Z,85.88
2023-03-06T17:41:42.160Z,85.68
2023-03-06T17:43:48.421Z,86.66
2023-03-06T17:45:50.785Z,85.32
2023-03-06T17:47:56.298Z,85.42
2023-03-06T17:50:00.810Z,86.53
2023-03-06T17:52:09.306Z,85.98
2023-03-06T17:54:19.109Z,85.99
2023-03-06T17:56:22.188Z,86.83
2023-03-06T17:58:28.156Z,87.19
2023-03-06T18:00:31.147Z,86.13
2023-03-06T18:02:40.867Z,86.52
2023-03-06T18:04:51.727Z,86.38
2023-03-06T18:07:00.996Z,86.69
2023-03-06T18:09:07.239Z,87.18
2023-03-06T18:11:32.071Z,86.51
2023-03-06T18:13:44.323Z,85.47
2023-03-06T18:15:48.669Z,84.96
2023-03-06T18:18:09.355Z,84.96
2023-03-06T18:20:20.495Z,84.99
2023-03-06T18:22:35.302Z,83.65
2023-03-06T18:24:50.392Z,84.79
2023-03-06T18:26:53.559Z,85.17
2023-03-06T18:29:06.561Z,86.27
2023-03-06T18:31:40.974Z,85.77
2023-03-06T18:33:45.292Z,85.97
2023-03-06T18:35:48.297Z,85.85
2023-03-06T18:37:52.864Z,85.29
2023-03-06T18:39:55.836Z,86.28
2023-03-06T18:41:58.866Z,86.38
2023-03-06T18:44:02.669Z,86.40
2023-03-06T18:46:06.482Z,86.42
2023-03-06T18:48:09.756Z,87.22
2023-03-06T18:50:18.141Z,86.58
2023-03-06T18:52:24.336Z,86.88
2023-03-06T18:54:30.415Z,86.97
2023-03-06T18:56:34.664Z,86.64
2023-03-06T18:58:37.648Z,86.72
2023-03-06T19:00:47.268Z,87.61
2023-03-06T19:02:50.591Z,86.80
2023-03-06T19:04:56.893Z,86.26
2023-03-06T19:06:59.972Z,86.89
2023-03-06T19:09:04.855Z,87.48
2023-03-06T19:11:14.481Z,87.22
2023-03-06T19:13:22.998Z,87.80
2023-03-06T19:15:26.115Z,89.70
2023-03-06T19:17:29.290Z,88.57
2023-03-06T19:19:36.140Z,88.71
2023-03-06T19:21:39.358Z,88.10
2023-03-06T19:23:44.051Z,88.27
2023-03-06T19:25:58.781Z,86.99
2023-03-06T19:28:04.699Z,87.35
2023-03-06T19:30:08.450Z,86.56
2023-03-06T19:32:13.864Z,86.47
2023-03-06T19:34:18.260Z,87.73
2023-03-06T19:36:24.470Z,87.15
2023-03-06T19:38:28.771Z,86.38
2023-03-06T19:40:31.710Z,86.36
2023-03-06T19:42:36.214Z,85.47
2023-03-06T19:44:40.357Z,86.37
2023-03-06T19:46:44.189Z,84.86
2023-03-06T19:48:49.199Z,84.20
2023-03-06T19:50:51.801Z,83.91
2023-03-06T19:52:54.175Z,83.26
2023-03-06T19:54:58.236Z,84.38
2023-03-06T19:57:01.387Z,85.60
2023-03-06T19:59:10.748Z,84.73
2023-03-06T20:01:21.276Z,83.38
2023-03-06T20:03:24.277Z,84.96
2023-03-06T20:05:28.606Z,85.04
2023-03-06T20:07:36.108Z,85.61
2023-03-06T20:09:42.920Z,84.88
2023-03-06T20:11:47.064Z,85.40
2023-03-06T20:14:00.717Z,85.91
2023-03-06T20:16:04.822Z,86.13
2023-03-06T20:18:07.406Z,86.84
2023-03-06T20:20:11.419Z,87.85
2023-03-06T20:22:14.853Z,87.58
2023-03-06T20:24:19.524Z,87.68
2023-03-06T20:26:22.902Z,88.19
2023-03-06T20:28:26.939Z,87.53
2023-03-06T20:30:37.558Z,89.13
2023-03-06T20:32:40.648Z,88.22
2023-03-06T20:34:44.816Z,88.87
2023-03-06T20:36:47.891Z,89.67
2023-03-06T20:38:56.065Z,90.07
2023-03-06T20:43:16.360Z,88.72
2023-03-06T20:45:18.765Z,91.10
2023-03-06T20:47:25.081Z,90.51
2023-03-06T20:49:29.137Z,91.24
2023-03-06T20:51:36.802Z,91.88
2023-03-06T20:53:39.520Z,90.95
2023-03-06T20:55:43.573Z,90.77
2023-03-06T20:57:54.540Z,91.07
2023-03-06T20:59:56.845Z,91.23
2023-03-06T21:01:59.554Z,91.71
2023-03-06T21:04:06.653Z,92.00
2023-03-06T21:06:09.593Z,91.54
2023-03-06T21:08:13.182Z,92.17
2023-03-06T21:10:15.732Z,91.96
2023-03-06T21:12:18.535Z,90.69
2023-03-06T21:14:21.658Z,90.30
2023-03-06T21:16:25.900Z,90.55
2023-03-06T21:18:28.395Z,91.09
2023-03-06T21:20:30.923Z,91.86
2023-03-06T21:22:33.380Z,91.11
2023-03-06T21:24:36.223Z,90.99
2023-03-06T21:26:38.971Z,90.84
2023-03-06T21:28:43.527Z,90.53
2023-03-06T21:30:46.659Z,91.69
2023-03-06T21:32:50.667Z,91.51
2023-03-06T21:34:53.487Z,90.67
2023-03-06T21:36:55.544Z,92.06
2023-03-06T21:38:58.723Z,92.25
2023-03-06T21:41:14.561Z,90.98
2023-03-06T21:43:17.712Z,91.52
2023-03-06T21:45:22.210Z,91.89
2023-03-06T21:47:24.319Z,91.43
2023-03-06T21:49:27.529Z,90.96
2023-03-06T21:51:29.442Z,91.05
2023-03-06T21:53:31.480Z,90.91
2023-03-06T21:55:33.447Z,91.28
2023-03-06T21:57:35.577Z,91.87
2023-03-06T21:59:37.944Z,91.51
2023-03-06T22:01:40.057Z,91.89
2023-03-06T22:03:41.994Z,92.05
2023-03-06T22:05:45.018Z,91.88
2023-03-06T22:07:47.075Z,92.04
2023-03-06T22:09:53.586Z,92.07
2023-03-06T22:11:55.574Z,90.38
2023-03-06T22:13:58.302Z,90.74
2023-03-06T22:16:00.727Z,91.18
2023-03-06T22:18:02.693Z,92.33